createdAt,value
2018-06-29T00:02:30.817Z,20.50
2018-06-29T00:04:59.140Z,20.50
2018-06-29T00:07:27.504Z,20.50
2018-06-29T00:09:55.939Z,20.50
2018-06-29T00:12:24.364Z,20.40
2018-06-29T00:14:52.708Z,20.40
2018-06-29T00:17:21.123Z,20.50
2018-06-29T00:19:49.508Z,20.50
2018-06-29T00:22:17.977Z,20.40
2018-06-29T00:24:46.373Z,20.50
2018-06-29T00:27:14.840Z,20.50
2018-06-29T00:29:43.223Z,20.50
2018-06-29T00:32:11.635Z,20.50
2018-06-29T00:34:40.001Z,20.50
2018-06-29T00:37:08.363Z,20.50
2018-06-29T00:39:36.762Z,20.50
2018-06-29T00:42:05.204Z,20.50
2018-06-29T00:44:33.603Z,20.50
2018-06-29T00:47:01.981Z,20.50
2018-06-29T00:49:30.331Z,20.50
2018-06-29T00:51:58.688Z,20.50
2018-06-29T00:56:55.196Z,20.50
2018-06-29T00:59:23.573Z,20.40
2018-06-29T01:01:51.912Z,20.40
2018-06-29T01:04:20.301Z,20.40
2018-06-29T01:06:48.659Z,20.40
2018-06-29T01:09:17.002Z,20.40
2018-06-29T01:11:45.377Z,20.40
2018-06-29T01:14:13.737Z,20.40
2018-06-29T01:16:42.140Z,20.40
2018-06-29T01:19:10.511Z,20.50
2018-06-29T01:21:38.891Z,20.40
2018-06-29T01:24:07.376Z,20.40
2018-06-29T01:26:35.751Z,20.40
2018-06-29T01:29:04.104Z,20.40
2018-06-29T01:31:32.455Z,20.40
2018-06-29T01:34:00.851Z,20.40
2018-06-29T01:36:29.204Z,20.40
2018-06-29T01:38:57.632Z,20.40
2018-06-29T01:41:25.994Z,20.40
2018-06-29T01:43:54.350Z,20.40
2018-06-29T01:46:22.732Z,20.40
2018-06-29T01:48:51.094Z,20.40
2018-06-29T01:51:19.483Z,20.40
2018-06-29T01:53:47.835Z,20.40
2018-06-29T01:56:16.269Z,20.40
2018-06-29T01:58:44.672Z,20.40
2018-06-29T02:03:41.129Z,20.40
2018-06-29T02:06:09.480Z,20.40
2018-06-29T02:08:37.877Z,20.40
2018-06-29T02:11:06.587Z,20.40
2018-06-29T02:13:34.962Z,20.50
2018-06-29T02:16:03.346Z,20.40
2018-06-29T02:18:31.740Z,20.40
2018-06-29T02:21:00.097Z,20.40
2018-06-29T02:23:28.481Z,20.40
2018-06-29T02:25:56.860Z,20.40
2018-06-29T02:28:25.261Z,20.40
2018-06-29T02:30:53.688Z,20.40
2018-06-29T02:33:22.044Z,20.40
2018-06-29T02:35:50.408Z,20.40
2018-06-29T02:38:18.962Z,20.40
2018-06-29T02:40:47.340Z,20.40
2018-06-29T02:43:15.737Z,20.40
2018-06-29T02:45:44.124Z,20.30
2018-06-29T02:48:12.476Z,20.40
2018-06-29T02:50:40.863Z,20.30
2018-06-29T02:53:09.505Z,20.40
2018-06-29T03:00:34.012Z,20.40
2018-06-29T03:03:02.491Z,20.30
2018-06-29T03:05:30.820Z,20.30
2018-06-29T03:07:59.176Z,20.30
2018-06-29T03:10:27.539Z,20.30
2018-06-29T03:12:55.988Z,20.30
2018-06-29T03:15:24.420Z,20.30
2018-06-29T03:17:52.788Z,20.30
2018-06-29T03:20:21.163Z,20.30
2018-06-29T03:22:49.565Z,20.30
2018-06-29T03:25:18.024Z,20.30
2018-06-29T03:27:46.544Z,20.30
2018-06-29T03:30:14.917Z,20.30
2018-06-29T03:32:43.362Z,20.30
2018-06-29T03:35:11.716Z,20.30
2018-06-29T03:40:08.269Z,20.30
2018-06-29T03:47:32.860Z,20.30
2018-06-29T03:50:01.220Z,20.30
2018-06-29T03:52:29.565Z,20.30
2018-06-29T03:54:57.916Z,20.30
2018-06-29T03:57:26.284Z,20.30
2018-06-29T03:59:54.656Z,20.30
2018-06-29T04:02:23.028Z,20.30
2018-06-29T04:04:51.411Z,20.30
2018-06-29T04:07:19.784Z,20.30
2018-06-29T04:09:48.173Z,20.30
2018-06-29T04:12:16.557Z,20.30
2018-06-29T04:14:44.915Z,20.30
2018-06-29T04:17:13.306Z,20.30
2018-06-29T04:19:41.721Z,20.30
2018-06-29T04:22:10.046Z,20.30
2018-06-29T04:24:38.467Z,20.30
2018-06-29T04:29:34.944Z,20.30
2018-06-29T04:32:03.332Z,20.30
2018-06-29T04:34:31.755Z,20.30
2018-06-29T04:37:00.134Z,20.30
2018-06-29T04:39:28.519Z,20.30
2018-06-29T04:44:24.984Z,20.30
2018-06-29T04:46:53.399Z,20.30
2018-06-29T04:49:21.815Z,20.30
2018-06-29T04:54:18.306Z,20.30
2018-06-29T04:56:46.674Z,20.30
2018-06-29T04:59:15.094Z,20.30
2018-06-29T05:01:43.577Z,20.30
2018-06-29T05:04:12.327Z,20.30
2018-06-29T05:06:40.719Z,20.30
2018-06-29T05:09:09.668Z,20.30
2018-06-29T05:11:38.515Z,20.30
2018-06-29T05:14:07.317Z,20.30
2018-06-29T05:16:35.726Z,20.30
2018-06-29T05:21:32.144Z,20.30
2018-06-29T05:24:00.545Z,20.30
2018-06-29T05:28:57.075Z,20.30
2018-06-29T05:31:25.523Z,20.30
2018-06-29T05:33:54.124Z,20.30
2018-06-29T05:36:22.551Z,20.30
2018-06-29T05:38:50.934Z,20.30
2018-06-29T05:41:19.752Z,20.30
2018-06-29T05:43:48.144Z,20.30
2018-06-29T05:46:16.673Z,20.30
2018-06-29T05:48:44.952Z,20.30
2018-06-29T05:51:13.308Z,20.30
2018-06-29T05:56:09.753Z,20.40
2018-06-29T05:58:38.472Z,20.40
2018-06-29T06:01:09.616Z,20.40
2018-06-29T06:03:38.105Z,20.40
2018-06-29T06:06:07.044Z,20.40
2018-06-29T06:08:35.435Z,20.50
2018-06-29T06:11:03.767Z,20.50
2018-06-29T06:13:32.143Z,20.50
2018-06-29T06:16:01.214Z,20.50
2018-06-29T06:18:29.952Z,20.50
2018-06-29T06:20:58.355Z,20.50
2018-06-29T06:25:54.788Z,20.50
2018-06-29T06:28:23.243Z,20.50
2018-06-29T06:30:51.736Z,20.50
2018-06-29T06:33:20.111Z,20.50
2018-06-29T06:35:48.542Z,20.50
2018-06-29T06:38:16.913Z,20.50
2018-06-29T06:40:45.284Z,20.50
2018-06-29T06:43:13.697Z,20.50
2018-06-29T06:45:42.056Z,20.50
2018-06-29T06:48:10.456Z,20.60
2018-06-29T06:50:38.835Z,20.60
2018-06-29T06:53:07.188Z,20.60
2018-06-29T06:55:35.566Z,20.60
2018-06-29T06:58:04.831Z,20.60
2018-06-29T07:00:33.374Z,20.60
2018-06-29T07:03:02.690Z,20.60
2018-06-29T07:05:31.042Z,20.60
2018-06-29T07:07:59.537Z,20.60
2018-06-29T07:10:27.904Z,20.60
2018-06-29T07:12:56.303Z,20.60
2018-06-29T07:15:24.671Z,20.60
2018-06-29T07:17:53.073Z,20.60
2018-06-29T07:20:21.476Z,20.60
2018-06-29T07:22:50.016Z,20.60
2018-06-29T07:25:18.445Z,20.60
2018-06-29T07:27:47.819Z,20.70
2018-06-29T07:30:16.300Z,20.70
2018-06-29T07:32:44.760Z,20.60
2018-06-29T07:35:13.144Z,20.70
2018-06-29T07:37:41.506Z,20.70
2018-06-29T07:40:09.882Z,20.70
2018-06-29T07:42:38.299Z,20.60
2018-06-29T07:45:06.661Z,20.70
2018-06-29T07:47:35.038Z,20.70
2018-06-29T07:50:03.431Z,20.70
2018-06-29T07:55:00.029Z,20.70
2018-06-29T07:57:28.416Z,20.70
2018-06-29T07:59:56.896Z,20.70
2018-06-29T08:02:25.259Z,20.70
2018-06-29T08:04:54.118Z,20.70
2018-06-29T08:09:50.570Z,20.80
2018-06-29T08:12:19.215Z,20.80
2018-06-29T08:14:47.808Z,20.80
2018-06-29T08:17:16.168Z,20.90
2018-06-29T08:19:44.624Z,20.90
2018-06-29T08:22:13.106Z,20.90
2018-06-29T08:24:53.092Z,20.90
2018-06-29T08:27:21.817Z,20.90
2018-06-29T08:29:50.199Z,20.90
2018-06-29T08:32:18.588Z,20.90
2018-06-29T08:34:46.976Z,20.90
2018-06-29T08:37:15.355Z,21.00
2018-06-29T08:39:43.768Z,21.00
2018-06-29T08:42:12.121Z,21.00
2018-06-29T08:44:40.584Z,21.00
2018-06-29T08:47:08.957Z,21.00
2018-06-29T08:49:37.386Z,21.10
2018-06-29T08:52:05.825Z,21.10
2018-06-29T08:54:34.230Z,21.10
2018-06-29T08:57:02.777Z,21.10
2018-06-29T08:59:31.211Z,21.20
2018-06-29T09:01:59.707Z,21.20
2018-06-29T09:04:28.094Z,21.20
2018-06-29T09:06:56.521Z,21.30
2018-06-29T09:09:24.939Z,21.30
2018-06-29T09:14:21.508Z,21.40
2018-06-29T09:16:49.892Z,21.40
2018-06-29T09:19:18.250Z,21.50
2018-06-29T09:24:14.831Z,21.60
2018-06-29T09:26:43.357Z,21.60
2018-06-29T09:29:11.812Z,21.70
2018-06-29T09:31:40.172Z,21.70
2018-06-29T09:34:08.543Z,21.80
2018-06-29T09:36:36.926Z,21.90
2018-06-29T09:39:07.864Z,21.90
2018-06-29T09:41:36.432Z,21.90
2018-06-29T09:44:05.119Z,22.00
2018-06-29T09:46:33.641Z,22.00
2018-06-29T09:49:02.120Z,22.10
2018-06-29T09:51:30.556Z,22.10
2018-06-29T09:53:59.122Z,22.20
2018-06-29T09:56:27.619Z,22.20
2018-06-29T09:58:56.351Z,22.30
2018-06-29T10:01:28.752Z,22.30
2018-06-29T10:03:57.405Z,22.30
2018-06-29T10:06:27.933Z,22.30
2018-06-29T10:09:01.150Z,22.40
2018-06-29T10:11:29.674Z,22.40
2018-06-29T10:13:58.154Z,22.40
2018-06-29T10:16:28.078Z,22.40
2018-06-29T10:18:56.534Z,22.40
2018-06-29T10:21:30.644Z,22.50
2018-06-29T10:23:59.033Z,22.50
2018-06-29T10:26:27.705Z,22.50
2018-06-29T10:28:56.075Z,22.50
2018-06-29T10:31:24.592Z,22.50
2018-06-29T10:33:53.230Z,22.60
2018-06-29T10:36:21.626Z,22.60
2018-06-29T10:38:50.089Z,22.60
2018-06-29T10:41:18.447Z,22.60
2018-06-29T10:43:47.004Z,22.50
2018-06-29T10:46:15.447Z,22.60
2018-06-29T10:48:43.806Z,22.60
2018-06-29T10:51:12.388Z,22.60
2018-06-29T10:56:09.373Z,22.60
2018-06-29T10:58:39.349Z,22.60
2018-06-29T11:01:09.204Z,22.70
2018-06-29T11:03:39.332Z,22.70
2018-06-29T11:06:07.842Z,22.70
2018-06-29T11:08:36.363Z,22.70
2018-06-29T11:13:33.032Z,22.80
2018-06-29T11:16:01.451Z,22.80
2018-06-29T11:18:29.937Z,22.90
2018-06-29T11:20:58.326Z,23.00
2018-06-29T11:23:26.727Z,23.10
2018-06-29T11:28:23.665Z,23.50
2018-06-29T11:30:52.211Z,23.60
2018-06-29T11:33:20.576Z,23.70
2018-06-29T11:35:48.950Z,23.80
2018-06-29T11:38:17.452Z,23.90
2018-06-29T11:40:45.877Z,24.00
2018-06-29T11:43:14.325Z,24.10
2018-06-29T11:45:42.729Z,24.10
2018-06-29T11:48:11.123Z,24.20
2018-06-29T11:53:07.640Z,24.20
2018-06-29T11:55:36.009Z,24.30
2018-06-29T11:58:04.525Z,24.30
2018-06-29T12:03:00.994Z,24.50
2018-06-29T12:05:29.539Z,24.60
2018-06-29T12:07:58.015Z,24.70
2018-06-29T12:10:26.435Z,24.70
2018-06-29T12:15:22.897Z,24.80
2018-06-29T12:17:51.325Z,25.00
2018-06-29T12:20:19.763Z,25.10
2018-06-29T12:22:48.156Z,25.20
2018-06-29T12:25:16.509Z,25.30
2018-06-29T12:27:44.860Z,25.40
2018-06-29T12:30:13.268Z,25.50
2018-06-29T12:32:41.700Z,25.60
2018-06-29T12:35:10.044Z,25.70
2018-06-29T12:37:38.455Z,25.80
2018-06-29T12:40:06.915Z,25.90
2018-06-29T12:42:35.293Z,25.90
2018-06-29T12:45:03.688Z,26.00
2018-06-29T12:47:32.065Z,26.00
2018-06-29T12:50:00.448Z,25.90
2018-06-29T12:54:56.920Z,25.90
2018-06-29T12:57:25.385Z,25.80
2018-06-29T12:59:53.803Z,25.80
2018-06-29T13:02:23.187Z,25.70
2018-06-29T13:04:51.602Z,25.70
2018-06-29T13:07:19.957Z,25.60
2018-06-29T13:09:48.334Z,25.60
2018-06-29T13:12:16.711Z,25.70
2018-06-29T13:14:45.101Z,25.70
2018-06-29T13:17:13.469Z,25.70
2018-06-29T13:19:41.839Z,25.80
2018-06-29T13:22:10.219Z,25.90
2018-06-29T13:24:38.611Z,25.90
2018-06-29T13:27:06.947Z,26.00
2018-06-29T13:29:35.388Z,26.10
2018-06-29T13:32:03.791Z,26.10
2018-06-29T13:34:32.171Z,26.20
2018-06-29T13:37:00.548Z,26.30
2018-06-29T13:39:28.971Z,26.40
2018-06-29T13:44:25.371Z,26.60
2018-06-29T13:46:53.740Z,26.70
2018-06-29T13:49:22.101Z,26.70
2018-06-29T13:51:50.491Z,26.80
2018-06-29T13:54:18.857Z,26.80
2018-06-29T13:56:47.220Z,26.90
2018-06-29T13:59:15.607Z,26.90
2018-06-29T14:01:43.956Z,27.00
2018-06-29T14:04:12.308Z,27.10
2018-06-29T14:11:36.893Z,27.30
2018-06-29T14:14:05.267Z,27.30
2018-06-29T14:16:33.671Z,27.40
2018-06-29T14:21:30.171Z,27.60
2018-06-29T14:23:58.552Z,27.60
2018-06-29T14:26:26.964Z,27.70
2018-06-29T14:28:55.416Z,27.80
2018-06-29T14:31:23.816Z,27.90
2018-06-29T14:33:52.239Z,27.90
2018-06-29T14:36:20.583Z,27.90
2018-06-29T14:38:48.999Z,28.00
2018-06-29T14:41:17.360Z,28.00
2018-06-29T14:46:13.827Z,28.00
2018-06-29T14:48:42.217Z,28.00
2018-06-29T14:51:10.687Z,28.10
2018-06-29T14:53:39.142Z,28.10
2018-06-29T14:58:35.726Z,28.20
2018-06-29T15:01:04.129Z,28.20
2018-06-29T15:03:32.524Z,28.30
2018-06-29T15:06:00.963Z,28.30
2018-06-29T15:08:29.365Z,28.40
2018-06-29T15:10:57.772Z,28.40
2018-06-29T15:13:26.167Z,28.40
2018-06-29T15:20:50.692Z,28.30
2018-06-29T15:25:47.211Z,28.20
2018-06-29T15:28:15.596Z,28.20
2018-06-29T15:30:44.070Z,28.10
2018-06-29T15:33:12.454Z,28.10
2018-06-29T15:35:40.882Z,28.10
2018-06-29T15:38:09.254Z,28.00
2018-06-29T15:40:37.668Z,28.00
2018-06-29T15:43:08.503Z,28.00
2018-06-29T15:45:37.016Z,28.00
2018-06-29T15:48:05.801Z,28.00
2018-06-29T15:50:34.182Z,27.90
2018-06-29T15:55:30.696Z,27.90
2018-06-29T15:57:59.137Z,27.80
2018-06-29T16:00:27.596Z,27.80
2018-06-29T16:05:24.084Z,27.70
2018-06-29T16:07:52.472Z,27.60
2018-06-29T16:10:20.833Z,27.60
2018-06-29T16:12:49.280Z,27.50
2018-06-29T16:17:45.746Z,27.40
2018-06-29T16:20:14.137Z,27.30
2018-06-29T16:22:42.468Z,27.30
2018-06-29T16:25:10.946Z,27.20
2018-06-29T16:27:39.318Z,27.20
2018-06-29T16:30:08.442Z,27.10
2018-06-29T16:37:33.008Z,27.00
2018-06-29T16:40:01.376Z,27.00
2018-06-29T16:42:29.844Z,27.00
2018-06-29T16:44:58.239Z,26.90
2018-06-29T16:47:26.591Z,26.90
2018-06-29T16:49:54.947Z,26.80
2018-06-29T16:54:51.428Z,26.80
2018-06-29T16:57:19.774Z,26.70
2018-06-29T17:02:16.216Z,26.70
2018-06-29T17:07:12.704Z,26.60
2018-06-29T17:09:41.139Z,26.60
2018-06-29T17:12:09.516Z,26.60
2018-06-29T17:19:34.511Z,26.60
2018-06-29T17:22:02.939Z,26.60
2018-06-29T17:26:59.379Z,26.70
2018-06-29T17:31:55.904Z,26.60
2018-06-29T17:34:24.294Z,26.60
2018-06-29T17:36:52.766Z,26.60
2018-06-29T17:39:21.280Z,26.50
2018-06-29T17:44:17.811Z,26.50
2018-06-29T17:46:46.237Z,26.40
2018-06-29T17:49:14.668Z,26.40
2018-06-29T17:51:43.040Z,26.30
2018-06-29T17:54:11.574Z,26.30
2018-06-29T17:56:40.006Z,26.30
2018-06-29T17:59:08.432Z,26.20
2018-06-29T18:01:36.841Z,26.20
2018-06-29T18:04:05.390Z,26.20
2018-06-29T18:06:33.827Z,26.10
2018-06-29T18:09:09.884Z,26.10
2018-06-29T18:14:06.407Z,26.00
2018-06-29T18:16:34.964Z,25.90
2018-06-29T18:19:03.788Z,25.90
2018-06-29T18:21:32.300Z,25.80
2018-06-29T18:24:00.776Z,25.80
2018-06-29T18:26:29.228Z,25.70
2018-06-29T18:28:57.610Z,25.70
2018-06-29T18:31:26.058Z,25.60
2018-06-29T18:33:54.470Z,25.60
2018-06-29T18:36:22.901Z,25.60
2018-06-29T18:38:51.351Z,25.50
2018-06-29T18:43:47.850Z,25.40
2018-06-29T18:46:16.368Z,25.40
2018-06-29T18:48:44.841Z,25.40
2018-06-29T18:51:13.230Z,25.40
2018-06-29T18:53:41.655Z,25.30
2018-06-29T18:56:10.124Z,25.30
2018-06-29T18:58:38.580Z,25.20
2018-06-29T19:01:07.226Z,25.20
2018-06-29T19:03:35.585Z,25.20
2018-06-29T19:06:04.050Z,25.20
2018-06-29T19:08:32.444Z,25.10
2018-06-29T19:11:00.823Z,25.10
2018-06-29T19:13:29.271Z,25.10
2018-06-29T19:15:57.655Z,25.10
2018-06-29T19:18:26.111Z,25.10
2018-06-29T19:20:54.496Z,25.00
2018-06-29T19:23:22.911Z,25.00
2018-06-29T19:25:51.355Z,25.00
2018-06-29T19:30:48.134Z,24.90
2018-06-29T19:33:16.590Z,24.90
2018-06-29T19:38:13.152Z,24.90
2018-06-29T19:40:41.618Z,24.80
2018-06-29T19:48:07.149Z,24.80
2018-06-29T19:50:38.736Z,24.80
2018-06-29T19:53:07.419Z,24.80
2018-06-29T19:55:35.850Z,24.70
2018-06-29T19:58:04.295Z,24.70
2018-06-29T20:00:32.774Z,24.70
2018-06-29T20:03:01.206Z,24.70
2018-06-29T20:05:29.660Z,24.70
2018-06-29T20:07:58.207Z,24.70
2018-06-29T20:10:26.596Z,24.70
2018-06-29T20:12:54.975Z,24.70
2018-06-29T20:15:23.542Z,24.60
2018-06-29T20:17:51.925Z,24.70
2018-06-29T20:20:20.356Z,24.60
2018-06-29T20:22:48.737Z,24.60
2018-06-29T20:30:13.320Z,24.50
2018-06-29T20:32:42.670Z,24.50
2018-06-29T20:35:11.063Z,24.50
2018-06-29T20:37:40.693Z,24.50
2018-06-29T20:40:09.139Z,24.50
2018-06-29T20:42:37.512Z,24.40
2018-06-29T20:45:05.935Z,24.40
2018-06-29T20:47:34.354Z,24.40
2018-06-29T20:50:02.758Z,24.30
2018-06-29T20:52:31.198Z,24.30
2018-06-29T20:54:59.651Z,24.30
2018-06-29T20:57:28.137Z,24.20
2018-06-29T20:59:56.564Z,24.20
2018-06-29T21:04:53.055Z,24.20
2018-06-29T21:07:21.520Z,24.20
2018-06-29T21:09:50.725Z,24.20
2018-06-29T21:12:19.214Z,24.20
2018-06-29T21:14:47.668Z,24.10
2018-06-29T21:17:16.152Z,24.10
2018-06-29T21:19:44.605Z,24.10
2018-06-29T21:22:13.676Z,24.10
2018-06-29T21:24:42.166Z,24.00
2018-06-29T21:27:10.792Z,24.00
2018-06-29T21:29:39.258Z,24.00
2018-06-29T21:32:08.819Z,23.90
2018-06-29T21:34:37.174Z,23.90
2018-06-29T21:37:05.607Z,23.90
2018-06-29T21:42:02.154Z,23.90
2018-06-29T21:46:58.652Z,23.80
2018-06-29T21:49:27.041Z,23.80
2018-06-29T21:51:55.450Z,23.80
2018-06-29T21:54:23.919Z,23.80
2018-06-29T21:56:52.312Z,23.80
2018-06-29T21:59:20.695Z,23.80
2018-06-29T22:01:49.064Z,23.80
2018-06-29T22:04:17.475Z,23.80
2018-06-29T22:06:45.898Z,23.80
2018-06-29T22:09:14.258Z,23.80
2018-06-29T22:11:42.639Z,23.80
2018-06-29T22:14:11.004Z,23.80
2018-06-29T22:16:39.403Z,23.80
2018-06-29T22:19:07.778Z,23.80
2018-06-29T22:21:36.214Z,23.70
2018-06-29T22:24:04.645Z,23.70
2018-06-29T22:26:33.003Z,23.70
2018-06-29T22:29:01.406Z,23.70
2018-06-29T22:31:29.993Z,23.60
2018-06-29T22:33:58.643Z,23.60
2018-06-29T22:36:27.108Z,23.60
2018-06-29T22:38:55.464Z,23.60
2018-06-29T22:43:52.000Z,23.60
2018-06-29T22:46:20.612Z,23.50
2018-06-29T22:48:48.991Z,23.50
2018-06-29T22:51:17.390Z,23.50
2018-06-29T22:53:45.819Z,23.50
2018-06-29T22:56:14.195Z,23.50
2018-06-29T22:58:42.620Z,23.40
2018-06-29T23:01:11.074Z,23.40
2018-06-29T23:03:44.860Z,23.40
2018-06-29T23:06:13.270Z,23.30
2018-06-29T23:08:41.684Z,23.30
2018-06-29T23:11:10.040Z,23.20
2018-06-29T23:13:38.392Z,23.20
2018-06-29T23:18:34.892Z,23.10
2018-06-29T23:21:03.265Z,23.10
2018-06-29T23:23:31.779Z,23.00
2018-06-29T23:26:00.173Z,23.00
2018-06-29T23:30:56.722Z,22.90
2018-06-29T23:35:53.187Z,22.80
2018-06-29T23:38:21.556Z,22.80
2018-06-29T23:43:18.138Z,22.70
2018-06-29T23:45:46.544Z,22.70
2018-06-29T23:48:14.908Z,22.70
2018-06-29T23:50:43.648Z,22.70
2018-06-29T23:53:12.031Z,22.70
2018-06-29T23:55:40.520Z,22.70
2018-06-29T23:58:08.944Z,22.60
